Time;durP1;ratioP1;P1;durP2;ratioP2;P2;SDS_P1;SDS_P2;PMS_P1;PMS_P2;Temp;Humidity;BMP_temperature;BMP_pressure;BME280_temperature;BME280_humidity;BME280_pressure;Samples;Min_cycle;Max_cycle;Signal;HPM_P1;HPM_P2
2023/07/09 00:01:27;;;;;;;6.47;5.03;;;;;;;;;;4924416;29;20167;-96
2023/07/09 00:04:19;;;;;;;7.05;4.88;;;;;;;;;;4923357;29;20055;-96
2023/07/09 00:09:55;;;;;;;8.00;5.03;;;;;;;;;;5303262;23;20125;-96
2023/07/09 00:12:24;;;;;;;9.45;4.50;;;;;;;;;;4943399;28;20028;-96
2023/07/09 00:14:54;;;;;;;7.75;4.97;;;;;;;;;;4941910;29;20027;-95
2023/07/09 00:17:40;;;;;;;;;;;;;;;;;;;;;
2023/07/09 00:20:24;;;;;;;6.20;4.38;;;;;;;;;;4946643;23;20064;-95
2023/07/09 00:22:54;;;;;;;6.80;4.90;;;;;;;;;;4904664;29;20032;-94
2023/07/09 00:25:24;;;;;;;8.48;5.00;;;;;;;;;;4904117;29;20028;-96
2023/07/09 00:27:59;;;;;;;7.72;4.70;;;;;;;;;;4903468;29;20043;-96
2023/07/09 00:30:29;;;;;;;6.40;5.00;;;;;;;;;;4903419;29;20389;-94
2023/07/09 00:35:31;;;;;;;;;;;;;;;;;;4920230;29;20075;-95
2023/07/09 00:38:00;;;;;;;8.82;5.40;;;;;;;;;;4903226;29;19907;-96
2023/07/09 00:40:32;;;;;;;10.60;5.65;;;;;;;;;;4903391;29;20051;-95
2023/07/09 00:43:13;;;;;;;10.80;5.07;;;;;;;;;;4903553;29;20032;-95
2023/07/09 00:45:48;;;;;;;9.23;5.72;;;;;;;;;;4904691;29;20044;-95
2023/07/09 00:48:33;;;;;;;;;;;;;;;;;;;;;
2023/07/09 00:51:12;;;;;;;11.02;5.53;;;;;;;;;;4920807;29;20032;-95
2023/07/09 00:53:49;;;;;;;8.50;5.78;;;;;;;;;;4904770;29;20032;-95
2023/07/09 00:56:38;;;;;;;8.15;5.88;;;;;;;;;;4918419;29;20028;-96
2023/07/09 00:59:20;;;;;;;7.30;5.68;;;;;;;;;;4894922;29;20049;-95
2023/07/09 01:01:52;;;;;;;9.43;6.10;;;;;;;;;;4919630;29;20040;-95
2023/07/09 01:07:21;;;;;;;8.38;5.50;;;;;;;;;;4861900;29;20628;-94
2023/07/09 01:09:48;;;;;;;10.27;5.53;;;;;;;;;;4932292;23;20046;-96
2023/07/09 01:12:18;;;;;;;7.55;5.35;;;;;;;;;;4937738;29;20036;-96
2023/07/09 01:14:51;;;;;;;11.27;5.50;;;;;;;;;;4939036;29;20119;-96
2023/07/09 01:17:27;;;;;;;9.45;5.75;;;;;;;;;;4937391;29;20027;-95
2023/07/09 01:19:54;;;;;;;10.63;5.78;;;;;;;;;;4938225;29;20044;-96
2023/07/09 01:22:29;;;;;;;8.13;5.50;;;;;;;;;;4937887;29;20047;-94
2023/07/09 01:25:05;;;;;;;7.53;5.40;;;;;;;;;;4932767;29;20120;-94
2023/07/09 01:27:39;;;;;;;8.38;5.50;;;;;;;;;;4937140;29;20247;-96
2023/07/09 01:30:17;;;;;;;9.60;5.55;;;;;;;;;;4919739;29;20059;-96
2023/07/09 01:32:52;;;;;;;7.70;5.53;;;;;;;;;;4938963;29;20035;-95
2023/07/09 01:38:33;;;;;;;7.50;5.22;;;;;;;;;;4919845;29;20068;-94
2023/07/09 01:41:09;;;;;;;;;;;;;;;;;;;;;
2023/07/09 01:43:39;;;;;;;7.82;5.53;;;;;;;;;;4939499;29;20042;-95
2023/07/09 01:46:05;;;;;;;9.88;5.70;;;;;;;;;;4922747;29;20040;-96
2023/07/09 01:48:40;;;;;;;8.63;5.82;;;;;;;;;;4916895;29;20040;-96
2023/07/09 01:51:24;;;;;;;7.60;5.38;;;;;;;;;;4920619;29;20397;-95
2023/07/09 01:54:12;;;;;;;;;;;;;;;;;;;;;
2023/07/09 01:56:42;;;;;;;11.68;6.00;;;;;;;;;;4920249;29;20119;-94
2023/07/09 01:59:11;;;;;;;11.10;4.60;;;;;;;;;;4920311;29;20048;-95
2023/07/09 02:01:49;;;;;;;7.00;5.45;;;;;;;;;;4923624;29;20051;-95
2023/07/09 02:04:37;;;;;;;8.50;5.95;;;;;;;;;;4930916;29;20039;-96
2023/07/09 02:07:13;;;;;;;7.97;5.63;;;;;;;;;;4920114;29;20047;-95
2023/07/09 02:09:47;;;;;;;9.73;5.75;;;;;;;;;;4917932;29;20683;-95
2023/07/09 02:12:17;;;;;;;9.93;5.68;;;;;;;;;;4919735;29;20477;-96
2023/07/09 02:14:47;;;;;;;9.50;6.03;;;;;;;;;;4918034;29;20103;-96
2023/07/09 02:17:14;;;;;;;10.73;6.10;;;;;;;;;;4962738;23;20151;-94
2023/07/09 02:20:09;;;;;;;;;;;;;;;;;;;;;
2023/07/09 02:25:14;;;;;;;8.15;6.03;;;;;;;;;;5115225;23;20044;-93
2023/07/09 03:54:55;;;;;;;;;;;;;;;;;;;;;
2023/07/09 03:57:31;;;;;;;;;;;;;;;;;;;;;
2023/07/09 06:08:46;;;;;;;5.15;2.83;;;;;;;;;;5222785;23;20047;-96
2023/07/09 06:16:53;;;;;;;5.70;3.13;;;;;;;;;;4902839;29;20418;-95
2023/07/09 06:19:19;;;;;;;4.10;2.90;;;;;;;;;;4904335;29;20044;-96
2023/07/09 06:22:05;;;;;;;4.53;3.10;;;;;;;;;;4926226;29;20035;-96
2023/07/09 06:24:51;;;;;;;6.70;3.17;;;;;;;;;;4946439;29;20111;-96
2023/07/09 07:09:21;;;;;;;7.78;2.90;;;;;;;;;;4211178;23;20190;-94
2023/07/09 07:32:59;;;;;;;8.25;3.33;;;;;;;;;;4206016;23;20133;-94
2023/07/09 07:35:40;;;;;;;7.15;3.03;;;;;;;;;;4909662;29;20052;-92
2023/07/09 07:38:36;;;;;;;6.95;3.15;;;;;;;;;;4908372;29;20032;-96
2023/07/09 07:41:16;;;;;;;4.80;2.92;;;;;;;;;;4828264;29;20459;-92
2023/07/09 07:44:16;;;;;;;8.55;3.33;;;;;;;;;;4886622;23;20051;-96
2023/07/09 08:13:15;;;;;;;5.30;2.90;;;;;;;;;;5959627;23;20345;-94
2023/07/09 09:01:36;;;;;;;5.63;2.78;;;;;;;;;;5347655;23;20697;-94
2023/07/09 09:18:06;;;;;;;10.27;2.80;;;;;;;;;;5375548;23;20064;-94
2023/07/09 09:20:56;;;;;;;3.22;2.10;;;;;;;;;;4908968;29;20119;-94
2023/07/09 09:29:21;;;;;;;7.47;2.95;;;;;;;;;;4927178;29;20046;-95
2023/07/09 09:49:35;;;;;;;4.50;2.80;;;;;;;;;;5228736;23;20015;-93
2023/07/09 10:03:38;;;;;;;4.55;2.78;;;;;;;;;;4925045;29;20119;-95
2023/07/09 10:06:26;;;;;;;7.15;3.13;;;;;;;;;;4904625;29;20044;-94
2023/07/09 10:09:12;;;;;;;4.80;2.92;;;;;;;;;;4968830;23;20443;-96
2023/07/09 10:11:57;;;;;;;5.80;2.90;;;;;;;;;;4922505;29;20040;-96
2023/07/09 10:14:45;;;;;;;3.70;2.80;;;;;;;;;;4906414;29;20036;-96
2023/07/09 10:20:39;;;;;;;6.63;3.22;;;;;;;;;;5699178;23;20062;-94
2023/07/09 10:29:29;;;;;;;3.38;2.30;;;;;;;;;;4985365;23;20104;-96
2023/07/09 10:32:29;;;;;;;4.80;2.92;;;;;;;;;;4917744;29;20072;-96
2023/07/09 10:50:39;;;;;;;3.60;2.55;;;;;;;;;;4925508;29;20043;-96
2023/07/09 10:53:27;;;;;;;7.82;3.00;;;;;;;;;;4911828;29;20095;-96
2023/07/09 11:05:09;;;;;;;5.45;2.95;;;;;;;;;;4945931;29;20510;-96
2023/07/09 11:19:28;;;;;;;6.35;2.83;;;;;;;;;;4965866;29;20521;-93
2023/07/09 11:22:09;;;;;;;3.65;2.80;;;;;;;;;;4947442;29;20032;-96
2023/07/09 11:33:47;;;;;;;5.55;3.20;;;;;;;;;;4925491;29;20109;-93
2023/07/09 11:36:34;;;;;;;5.00;2.70;;;;;;;;;;4885916;29;20033;-93
2023/07/09 11:39:34;;;;;;;6.30;2.70;;;;;;;;;;4867766;29;20053;-93
2023/07/09 11:42:34;;;;;;;4.60;2.90;;;;;;;;;;4867001;29;20124;-93
2023/07/09 11:51:21;;;;;;;6.20;3.20;;;;;;;;;;4928790;29;20047;-96
2023/07/09 11:53:56;;;;;;;3.85;3.10;;;;;;;;;;4904825;29;20036;-96
2023/07/09 12:22:52;;;;;;;5.97;3.05;;;;;;;;;;5516725;23;20423;-93
2023/07/09 12:40:56;;;;;;;4.10;3.10;;;;;;;;;;5143149;23;20054;-93
2023/07/09 12:43:26;;;;;;;5.13;2.90;;;;;;;;;;4947170;29;20484;-93
2023/07/09 12:45:56;;;;;;;4.43;2.80;;;;;;;;;;4943930;29;20031;-93
2023/07/09 12:48:50;;;;;;;4.95;2.85;;;;;;;;;;4954239;29;20039;-92
2023/07/09 12:51:27;;;;;;;4.40;3.30;;;;;;;;;;4921415;29;20484;-95
2023/07/09 12:54:20;;;;;;;5.82;3.03;;;;;;;;;;4957850;29;20488;-94
2023/07/09 12:56:47;;;;;;;3.63;2.70;;;;;;;;;;4940591;29;20049;-93
2023/07/09 12:59:19;;;;;;;6.57;3.17;;;;;;;;;;4940060;29;20035;-93
2023/07/09 13:02:10;;;;;;;6.90;3.30;;;;;;;;;;4940579;29;20034;-94
2023/07/09 13:04:52;;;;;;;4.72;2.97;;;;;;;;;;4941512;29;20401;-95
2023/07/09 13:07:26;;;;;;;3.80;2.93;;;;;;;;;;4943377;29;20130;-92
2023/07/09 13:10:35;;;;;;;4.00;3.13;;;;;;;;;;4949084;29;20259;-92
2023/07/09 13:13:19;;;;;;;5.10;3.30;;;;;;;;;;4875716;29;20041;-93
2023/07/09 13:15:51;;;;;;;3.97;2.80;;;;;;;;;;4874291;29;20029;-93
2023/07/09 13:20:57;;;;;;;4.95;2.80;;;;;;;;;;5076529;23;19999;-92
2023/07/09 13:23:31;;;;;;;4.00;2.78;;;;;;;;;;4897744;29;20039;-96
2023/07/09 13:26:03;;;;;;;4.00;2.60;;;;;;;;;;4903430;29;20095;-93
2023/07/09 13:28:32;;;;;;;5.28;2.70;;;;;;;;;;4903412;29;20052;-92
2023/07/09 13:31:30;;;;;;;6.63;2.83;;;;;;;;;;4903533;29;20373;-92
2023/07/09 13:34:02;;;;;;;3.95;2.85;;;;;;;;;;4905314;29;20039;-94
2023/07/09 13:36:47;;;;;;;4.03;2.92;;;;;;;;;;4904488;29;20040;-93
2023/07/09 13:39:17;;;;;;;5.03;2.90;;;;;;;;;;4903213;29;20032;-93
2023/07/09 13:41:58;;;;;;;4.28;2.60;;;;;;;;;;4902917;29;20024;-94
2023/07/09 13:44:50;;;;;;;3.17;2.50;;;;;;;;;;4902901;29;20486;-92
2023/07/09 13:47:20;;;;;;;5.55;2.60;;;;;;;;;;4899926;29;20044;-92
2023/07/09 13:49:50;;;;;;;3.58;2.70;;;;;;;;;;4895434;29;20540;-92
2023/07/09 13:52:46;;;;;;;3.25;2.30;;;;;;;;;;4903733;29;20120;-94
2023/07/09 13:55:26;;;;;;;2.97;2.47;;;;;;;;;;4902457;29;20115;-93
2023/07/09 13:57:58;;;;;;;5.80;2.40;;;;;;;;;;4903695;29;20184;-93
2023/07/09 14:00:27;;;;;;;;;;;;;;;;;;4903468;29;20499;-92
2023/07/09 14:02:56;;;;;;;4.35;2.58;;;;;;;;;;4905161;29;20356;-92
2023/07/09 14:08:40;;;;;;;4.30;2.72;;;;;;;;;;4922947;29;20055;-91
2023/07/09 14:11:22;;;;;;;4.95;2.90;;;;;;;;;;4905384;29;20067;-93
2023/07/09 14:13:52;;;;;;;3.92;2.92;;;;;;;;;;4906144;29;20031;-93
2023/07/09 14:16:46;;;;;;;6.60;3.00;;;;;;;;;;4911204;29;20041;-93
2023/07/09 14:19:25;;;;;;;5.10;2.80;;;;;;;;;;4830539;29;20075;-92
2023/07/09 14:21:56;;;;;;;4.22;2.83;;;;;;;;;;4884006;29;20059;-93
2023/07/09 14:24:40;;;;;;;5.20;2.72;;;;;;;;;;4903670;29;20115;-93
2023/07/09 14:27:51;;;;;;;4.40;2.88;;;;;;;;;;4904068;29;20055;-92
2023/07/09 14:30:12;;;;;;;;;;;;;;;;;;;;;
2023/07/09 14:32:46;;;;;;;5.63;2.78;;;;;;;;;;4919403;29;20088;-93
2023/07/09 14:35:17;;;;;;;5.80;2.60;;;;;;;;;;4906646;29;20036;-94
2023/07/09 14:37:59;;;;;;;5.20;3.00;;;;;;;;;;4908107;29;20066;-94
2023/07/09 14:40:40;;;;;;;3.47;2.50;;;;;;;;;;4906040;29;20264;-95
2023/07/09 14:43:15;;;;;;;6.40;2.67;;;;;;;;;;4907643;29;20043;-95
2023/07/09 14:45:49;;;;;;;6.93;2.83;;;;;;;;;;4908065;29;20393;-96
2023/07/09 14:48:31;;;;;;;13.02;2.80;;;;;;;;;;5055589;23;20138;-94
2023/07/09 14:53:52;;;;;;;3.97;2.60;;;;;;;;;;5977729;23;20083;-93
2023/07/09 14:56:20;;;;;;;4.50;2.40;;;;;;;;;;4960205;29;20039;-91
2023/07/09 15:04:44;;;;;;;4.35;3.00;;;;;;;;;;5447620;23;20154;-94
2023/07/09 15:12:56;;;;;;;4.28;3.08;;;;;;;;;;4946621;29;20568;-95
2023/07/09 15:15:44;;;;;;;4.57;2.90;;;;;;;;;;4941889;29;20091;-93
2023/07/09 15:33:55;;;;;;;3.78;2.72;;;;;;;;;;5319084;23;20051;-92
2023/07/09 15:36:31;;;;;;;5.88;2.90;;;;;;;;;;4950366;29;20433;-93
2023/07/09 15:41:52;;;;;;;5.43;3.08;;;;;;;;;;5053200;23;20091;-93
2023/07/09 16:02:36;;;;;;;5.72;2.75;;;;;;;;;;4888454;29;20109;-91
2023/07/09 16:08:02;;;;;;;4.15;2.80;;;;;;;;;;4886778;29;19934;-93
2023/07/09 16:13:38;;;;;;;5.82;2.72;;;;;;;;;;5275138;23;20086;-92
2023/07/09 16:16:04;;;;;;;3.85;2.70;;;;;;;;;;4903377;29;20111;-92
2023/07/09 16:18:36;;;;;;;3.78;2.60;;;;;;;;;;4903326;29;20060;-93
2023/07/09 16:21:02;;;;;;;6.25;2.67;;;;;;;;;;4904400;29;20139;-89
2023/07/09 16:23:28;;;;;;;7.30;2.67;;;;;;;;;;4904452;29;20067;-89
2023/07/09 16:25:54;;;;;;;3.63;2.60;;;;;;;;;;4911159;29;20032;-91
2023/07/09 16:28:23;;;;;;;7.63;3.28;;;;;;;;;;4904456;29;20481;-93
2023/07/09 16:41:48;;;;;;;7.47;3.13;;;;;;;;;;4932238;29;20092;-90
2023/07/09 16:44:18;;;;;;;7.90;2.90;;;;;;;;;;4922267;29;20035;-92
2023/07/09 16:46:47;;;;;;;5.15;2.90;;;;;;;;;;4923095;29;20167;-89
2023/07/09 16:49:48;;;;;;;5.45;3.00;;;;;;;;;;4926031;29;20024;-93
2023/07/09 16:52:36;;;;;;;5.30;3.10;;;;;;;;;;4921387;29;20087;-94
2023/07/09 16:58:18;;;;;;;;;;;;;;;;;;;;;
2023/07/09 17:00:44;;;;;;;4.05;2.83;;;;;;;;;;4937416;29;20050;-92
2023/07/09 17:03:18;;;;;;;5.40;3.00;;;;;;;;;;4921509;29;20115;-94
2023/07/09 17:05:50;;;;;;;10.27;3.33;;;;;;;;;;4921769;29;20032;-93
2023/07/09 17:11:34;;;;;;;4.85;3.33;;;;;;;;;;4949453;29;20051;-96
2023/07/09 17:14:29;;;;;;;4.40;3.00;;;;;;;;;;4932656;29;20424;-96
2023/07/09 17:17:23;;;;;;;5.45;3.00;;;;;;;;;;4905347;29;20036;-95
2023/07/09 17:28:50;;;;;;;4.68;3.03;;;;;;;;;;4880652;29;20048;-90
2023/07/09 17:34:24;;;;;;;5.50;3.65;;;;;;;;;;4859742;29;20029;-91
2023/07/09 17:36:56;;;;;;;6.35;3.20;;;;;;;;;;4860346;29;20439;-93
2023/07/09 17:42:21;;;;;;;8.93;3.83;;;;;;;;;;4919770;29;20174;-96
2023/07/09 17:44:54;;;;;;;7.95;3.53;;;;;;;;;;4901402;29;20032;-95
2023/07/09 17:47:40;;;;;;;8.50;4.03;;;;;;;;;;4914335;29;20050;-96
2023/07/09 17:50:25;;;;;;;9.80;3.90;;;;;;;;;;4923317;29;20036;-93
2023/07/09 17:52:55;;;;;;;7.88;3.83;;;;;;;;;;4921202;29;20401;-91
2023/07/09 17:55:24;;;;;;;8.55;3.38;;;;;;;;;;4925739;29;20028;-93
2023/07/09 18:00:53;;;;;;;7.28;3.30;;;;;;;;;;4901022;29;20028;-90
2023/07/09 18:03:20;;;;;;;7.35;3.42;;;;;;;;;;4924358;29;20079;-93
2023/07/09 18:05:58;;;;;;;6.20;3.58;;;;;;;;;;4921584;29;20019;-94
2023/07/09 18:11:00;;;;;;;5.50;3.70;;;;;;;;;;4925527;29;20072;-94
2023/07/09 18:16:20;;;;;;;6.38;4.10;;;;;;;;;;4925395;29;20128;-90
2023/07/09 18:19:20;;;;;;;5.47;3.88;;;;;;;;;;4920365;29;20096;-89
2023/07/09 18:21:46;;;;;;;9.77;3.97;;;;;;;;;;4902318;29;20037;-89
2023/07/09 18:24:12;;;;;;;12.55;4.00;;;;;;;;;;4886088;29;20077;-91
2023/07/09 18:26:39;;;;;;;7.28;4.30;;;;;;;;;;4885887;29;20123;-90
2023/07/09 18:32:27;;;;;;;9.85;4.20;;;;;;;;;;4905238;29;20512;-94
2023/07/09 18:34:58;;;;;;;17.08;4.63;;;;;;;;;;4905707;29;20037;-92
2023/07/09 18:37:27;;;;;;;23.67;6.28;;;;;;;;;;4904036;29;20437;-94
2023/07/09 18:39:58;;;;;;;26.13;6.50;;;;;;;;;;4905909;29;20024;-95
2023/07/09 18:42:27;;;;;;;34.90;6.50;;;;;;;;;;4902713;29;20032;-92
2023/07/09 18:51:07;;;;;;;20.80;6.10;;;;;;;;;;4938946;23;20088;-93
2023/07/09 18:53:37;;;;;;;20.60;5.50;;;;;;;;;;4924833;29;20047;-96
2023/07/09 18:56:15;;;;;;;12.15;4.57;;;;;;;;;;4923856;29;20096;-96
2023/07/09 18:58:41;;;;;;;13.98;5.60;;;;;;;;;;4907073;29;20044;-92
2023/07/09 19:01:27;;;;;;;14.88;5.32;;;;;;;;;;4905406;29;20021;-93
2023/07/09 19:03:58;;;;;;;13.02;5.10;;;;;;;;;;4925774;29;20024;-93
2023/07/09 19:12:17;;;;;;;20.80;6.22;;;;;;;;;;4927441;29;20055;-91
2023/07/09 19:17:44;;;;;;;13.35;5.72;;;;;;;;;;4964746;23;20070;-96
2023/07/09 19:20:23;;;;;;;17.13;5.82;;;;;;;;;;4943852;29;20031;-91
2023/07/09 19:25:49;;;;;;;14.38;6.03;;;;;;;;;;4957221;23;20058;-93
2023/07/09 19:28:28;;;;;;;11.13;5.78;;;;;;;;;;4942590;29;20044;-90
2023/07/09 19:32:03;;;;;;;13.82;5.88;;;;;;;;;;4925384;29;20067;-95
2023/07/09 20:03:29;;;;;;;14.40;5.07;;;;;;;;;;5726933;23;20709;-96
2023/07/09 20:05:59;;;;;;;8.85;4.88;;;;;;;;;;4923167;29;20162;-96
2023/07/09 20:11:00;;;;;;;9.35;4.95;;;;;;;;;;4946539;23;20074;-92
2023/07/09 20:13:38;;;;;;;6.53;4.60;;;;;;;;;;4904523;29;20052;-90
2023/07/09 20:16:04;;;;;;;8.35;4.57;;;;;;;;;;4905313;29;20123;-91
2023/07/09 20:18:30;;;;;;;7.07;4.75;;;;;;;;;;4906707;29;20039;-92
2023/07/09 20:21:03;;;;;;;8.38;4.82;;;;;;;;;;4907547;29;20036;-92
2023/07/09 20:23:44;;;;;;;9.23;5.00;;;;;;;;;;4927500;29;20028;-92
2023/07/09 20:26:11;;;;;;;7.13;4.60;;;;;;;;;;4910923;29;20124;-92
2023/07/09 20:28:50;;;;;;;8.82;4.90;;;;;;;;;;4929388;29;20027;-92
2023/07/09 20:31:22;;;;;;;11.25;4.95;;;;;;;;;;4924522;29;20032;-92
2023/07/09 20:33:48;;;;;;;9.30;4.75;;;;;;;;;;4907282;29;20047;-93
2023/07/09 20:36:17;;;;;;;12.90;4.88;;;;;;;;;;4906075;29;20028;-94
2023/07/09 20:38:43;;;;;;;9.20;5.03;;;;;;;;;;4906807;29;20028;-91
2023/07/09 20:41:31;;;;;;;8.20;5.22;;;;;;;;;;4910384;29;20032;-92
2023/07/09 20:43:57;;;;;;;8.63;5.13;;;;;;;;;;4952353;23;20012;-92
2023/07/09 20:46:23;;;;;;;7.80;4.60;;;;;;;;;;4967717;23;20067;-91
2023/07/09 20:49:01;;;;;;;6.47;4.60;;;;;;;;;;4959300;23;20059;-91
2023/07/09 20:51:43;;;;;;;6.78;4.72;;;;;;;;;;4905971;29;20047;-92
2023/07/09 21:00:03;;;;;;;12.20;5.78;;;;;;;;;;4918837;29;20091;-91
2023/07/09 21:02:29;;;;;;;7.65;5.45;;;;;;;;;;4912480;29;20019;-91
2023/07/09 21:04:58;;;;;;;7.43;5.03;;;;;;;;;;4908737;29;20039;-92
2023/07/09 21:07:28;;;;;;;10.73;5.50;;;;;;;;;;4907695;29;20047;-92
2023/07/09 21:10:04;;;;;;;10.07;5.57;;;;;;;;;;4904975;29;20075;-92
2023/07/09 21:18:05;;;;;;;8.13;5.35;;;;;;;;;;4872500;29;20125;-90
2023/07/09 21:20:32;;;;;;;8.60;5.03;;;;;;;;;;4901413;29;20032;-91
2023/07/09 21:22:58;;;;;;;8.25;5.15;;;;;;;;;;4905659;29;20068;-90
2023/07/09 21:25:30;;;;;;;8.10;5.22;;;;;;;;;;4923854;29;20063;-95
2023/07/09 21:28:02;;;;;;;10.73;5.83;;;;;;;;;;4925495;29;20050;-92
2023/07/09 21:30:29;;;;;;;8.57;5.15;;;;;;;;;;4923680;29;20028;-91
2023/07/09 21:32:58;;;;;;;8.75;5.35;;;;;;;;;;4927612;29;20027;-91
2023/07/09 21:35:35;;;;;;;8.50;5.47;;;;;;;;;;4913155;29;20040;-91
2023/07/09 21:38:02;;;;;;;7.93;5.68;;;;;;;;;;4912384;29;20035;-90
2023/07/09 21:46:01;;;;;;;7.85;5.35;;;;;;;;;;4945323;29;20027;-94
2023/07/09 21:48:27;;;;;;;7.68;5.35;;;;;;;;;;4923701;29;20508;-92
2023/07/09 21:50:54;;;;;;;6.63;5.10;;;;;;;;;;4921418;29;20082;-93
2023/07/09 21:53:22;;;;;;;6.68;5.00;;;;;;;;;;4925167;29;20050;-91
2023/07/09 21:55:48;;;;;;;9.38;5.18;;;;;;;;;;4920959;29;20473;-91
2023/07/09 21:58:14;;;;;;;7.25;5.10;;;;;;;;;;4921062;29;20031;-92
2023/07/09 22:00:41;;;;;;;7.20;5.10;;;;;;;;;;4920396;29;20062;-93
2023/07/09 22:03:11;;;;;;;9.30;5.15;;;;;;;;;;4921086;29;20085;-92
2023/07/09 22:05:40;;;;;;;6.13;4.95;;;;;;;;;;4921304;29;20063;-93
2023/07/09 22:08:14;;;;;;;6.47;4.75;;;;;;;;;;4920378;29;20070;-91
2023/07/09 22:10:40;;;;;;;7.65;5.15;;;;;;;;;;4922580;29;20032;-93
2023/07/09 22:13:08;;;;;;;8.48;5.18;;;;;;;;;;4920477;29;20171;-92
2023/07/09 22:15:35;;;;;;;8.25;5.80;;;;;;;;;;4921084;29;20032;-93
2023/07/09 22:18:01;;;;;;;7.97;5.40;;;;;;;;;;4920867;29;20035;-92
2023/07/09 22:20:32;;;;;;;7.32;5.28;;;;;;;;;;4919666;29;20031;-93
2023/07/09 22:22:58;;;;;;;7.13;4.95;;;;;;;;;;4920590;29;20503;-92
2023/07/09 22:25:29;;;;;;;8.50;5.03;;;;;;;;;;4920916;29;20032;-93
2023/07/09 22:27:55;;;;;;;8.77;4.80;;;;;;;;;;4920612;29;20066;-93
2023/07/09 22:30:22;;;;;;;5.72;4.50;;;;;;;;;;4920209;29;20024;-93
2023/07/09 22:33:07;;;;;;;7.60;5.40;;;;;;;;;;4920397;29;20032;-93
2023/07/09 22:35:34;;;;;;;8.98;5.70;;;;;;;;;;4920831;29;20047;-93
2023/07/09 22:38:01;;;;;;;7.57;5.63;;;;;;;;;;4920248;29;20090;-92
2023/07/09 22:40:28;;;;;;;9.02;5.00;;;;;;;;;;4919969;29;20031;-92
2023/07/09 22:42:55;;;;;;;8.10;5.22;;;;;;;;;;4920544;29;20032;-92
2023/07/09 22:45:24;;;;;;;9.15;4.93;;;;;;;;;;4920384;29;20094;-93
2023/07/09 22:47:55;;;;;;;8.93;4.90;;;;;;;;;;4922857;29;20040;-91
2023/07/09 22:50:26;;;;;;;8.82;4.85;;;;;;;;;;4925506;29;20023;-91
2023/07/09 22:52:52;;;;;;;6.28;4.78;;;;;;;;;;4921681;29;20046;-92
2023/07/09 22:55:35;;;;;;;7.35;4.60;;;;;;;;;;4924578;29;20024;-91
2023/07/09 22:58:03;;;;;;;7.07;5.40;;;;;;;;;;4923371;29;20031;-92
2023/07/09 23:00:30;;;;;;;9.32;4.90;;;;;;;;;;4923189;29;20183;-92
2023/07/09 23:02:59;;;;;;;9.20;5.00;;;;;;;;;;4923365;29;20111;-92
2023/07/09 23:05:25;;;;;;;9.00;5.00;;;;;;;;;;4923377;29;20038;-92
2023/07/09 23:07:52;;;;;;;7.45;4.82;;;;;;;;;;4923619;29;20035;-94
2023/07/09 23:10:19;;;;;;;6.45;4.65;;;;;;;;;;4923108;29;20115;-93
2023/07/09 23:12:48;;;;;;;9.75;5.18;;;;;;;;;;4923069;29;20515;-93
2023/07/09 23:15:23;;;;;;;6.53;4.80;;;;;;;;;;4923110;29;20489;-91
2023/07/09 23:17:49;;;;;;;7.25;5.00;;;;;;;;;;4923433;29;20473;-93
2023/07/09 23:20:22;;;;;;;7.93;5.30;;;;;;;;;;4923128;29;20027;-93
2023/07/09 23:22:49;;;;;;;10.43;5.57;;;;;;;;;;4914057;29;20047;-93
2023/07/09 23:25:30;;;;;;;9.35;5.00;;;;;;;;;;4930540;29;20038;-93
2023/07/09 23:28:09;;;;;;;8.18;5.45;;;;;;;;;;4923029;29;20440;-93
2023/07/09 23:30:36;;;;;;;7.03;4.93;;;;;;;;;;4923106;29;20039;-93
2023/07/09 23:33:03;;;;;;;7.97;4.63;;;;;;;;;;4923139;29;20038;-92
2023/07/09 23:35:29;;;;;;;7.15;5.22;;;;;;;;;;4923340;29;20028;-92
2023/07/09 23:37:55;;;;;;;6.78;4.78;;;;;;;;;;4922811;29;20028;-93
2023/07/09 23:40:22;;;;;;;8.23;5.00;;;;;;;;;;4923143;29;20028;-93
2023/07/09 23:42:49;;;;;;;6.80;5.22;;;;;;;;;;4927335;29;20043;-92
2023/07/09 23:45:18;;;;;;;7.75;5.13;;;;;;;;;;4958060;29;20056;-92
2023/07/09 23:47:45;;;;;;;5.95;5.00;;;;;;;;;;4928340;29;20043;-93
2023/07/09 23:50:18;;;;;;;7.90;5.20;;;;;;;;;;4923134;29;20078;-92
2023/07/09 23:52:44;;;;;;;;;;;;;;;;;;4923806;29;20027;-93
2023/07/09 23:55:10;;;;;;;8.43;5.65;;;;;;;;;;4922744;29;20373;-93
2023/07/09 23:57:37;;;;;;;8.95;5.72;;;;;;;;;;4922779;29;20031;-92
